createdAt,value
2018-04-30T00:00:37.252Z,48.34
2018-04-30T00:01:37.370Z,86.43
2018-04-30T00:02:37.489Z,44.43
2018-04-30T00:03:37.797Z,43.70
2018-04-30T00:04:37.761Z,43.46
2018-04-30T00:05:37.860Z,44.19
2018-04-30T00:06:37.928Z,60.06
2018-04-30T00:07:37.952Z,81.54
2018-04-30T00:08:37.975Z,80.57
2018-04-30T00:09:38.192Z,45.17
2018-04-30T00:10:38.217Z,43.70
2018-04-30T00:11:38.309Z,43.46
2018-04-30T00:12:38.470Z,44.19
2018-04-30T00:13:38.484Z,44.43
2018-04-30T00:14:38.621Z,74.46
2018-04-30T00:15:38.824Z,45.65
2018-04-30T00:16:38.961Z,46.63
2018-04-30T00:17:39.024Z,83.98
2018-04-30T00:18:39.032Z,43.70
2018-04-30T00:19:39.120Z,44.43
2018-04-30T00:20:39.225Z,79.59
2018-04-30T00:21:39.360Z,73.49
2018-04-30T00:22:39.380Z,80.32
2018-04-30T00:23:39.509Z,53.22
2018-04-30T00:24:39.619Z,42.72
2018-04-30T00:25:39.720Z,80.08
2018-04-30T00:26:39.825Z,51.76
2018-04-30T00:27:39.919Z,44.19
2018-04-30T00:28:40.035Z,77.15
2018-04-30T00:29:40.132Z,58.84
2018-04-30T00:30:40.216Z,85.21
2018-04-30T00:31:40.481Z,73.49
2018-04-30T00:32:40.458Z,43.70
2018-04-30T00:33:40.593Z,74.71
2018-04-30T00:34:40.694Z,69.82
2018-04-30T00:35:40.796Z,71.04
2018-04-30T00:36:40.858Z,53.22
2018-04-30T00:37:40.946Z,43.95
2018-04-30T00:38:41.066Z,75.68
2018-04-30T00:39:41.153Z,44.43
2018-04-30T00:40:41.269Z,82.03
2018-04-30T00:41:41.363Z,61.52
2018-04-30T00:42:41.473Z,45.41
2018-04-30T00:43:41.545Z,44.19
2018-04-30T00:44:41.659Z,44.19
2018-04-30T00:45:41.752Z,61.04
2018-04-30T00:46:41.848Z,43.95
2018-04-30T00:47:41.950Z,43.95
2018-04-30T00:48:42.044Z,74.71
2018-04-30T00:49:42.155Z,44.43
2018-04-30T00:50:42.247Z,43.46
2018-04-30T00:51:42.346Z,43.70
2018-04-30T00:52:42.434Z,74.46
2018-04-30T00:53:42.531Z,50.78
2018-04-30T00:54:42.628Z,70.80
2018-04-30T00:55:42.715Z,44.43
2018-04-30T00:56:42.809Z,44.19
2018-04-30T00:57:42.907Z,45.65
2018-04-30T00:58:42.990Z,75.68
2018-04-30T00:59:43.090Z,77.39
2018-04-30T01:00:43.184Z,75.20
2018-04-30T01:01:43.283Z,60.30
2018-04-30T01:02:43.387Z,72.75
2018-04-30T01:03:43.488Z,51.27
2018-04-30T01:04:43.583Z,73.24
2018-04-30T01:05:43.691Z,75.68
2018-04-30T01:06:43.785Z,43.21
2018-04-30T01:07:43.884Z,43.95
2018-04-30T01:08:43.982Z,43.95
2018-04-30T01:09:44.083Z,44.19
2018-04-30T01:10:44.176Z,73.00
2018-04-30T01:11:44.274Z,83.01
2018-04-30T01:12:44.389Z,83.98
2018-04-30T01:13:44.483Z,59.08
2018-04-30T01:14:44.586Z,43.70
2018-04-30T01:15:44.675Z,44.19
2018-04-30T01:16:44.777Z,43.46
2018-04-30T01:17:44.879Z,87.16
2018-04-30T01:18:44.970Z,77.64
2018-04-30T01:19:45.072Z,46.39
2018-04-30T01:20:45.163Z,52.00
2018-04-30T01:21:45.252Z,70.07
2018-04-30T01:22:45.342Z,74.22
2018-04-30T01:23:45.440Z,44.43
2018-04-30T01:24:45.535Z,43.70
2018-04-30T01:25:45.643Z,43.70
2018-04-30T01:26:45.726Z,44.19
2018-04-30T01:27:45.822Z,44.68
2018-04-30T01:28:45.911Z,48.10
2018-04-30T01:29:46.008Z,47.12
2018-04-30T01:30:46.110Z,45.65
2018-04-30T01:31:46.210Z,47.36
2018-04-30T01:32:46.326Z,45.65
2018-04-30T01:33:46.407Z,77.39
2018-04-30T01:34:46.507Z,74.95
2018-04-30T01:35:46.602Z,77.15
2018-04-30T01:36:46.705Z,47.61
2018-04-30T01:37:46.801Z,43.95
2018-04-30T01:38:46.890Z,43.70
2018-04-30T01:39:46.994Z,74.22
2018-04-30T01:40:47.074Z,43.21
2018-04-30T01:41:47.176Z,43.95
2018-04-30T01:42:47.263Z,73.00
2018-04-30T01:43:47.364Z,74.71
2018-04-30T01:44:47.456Z,45.90
2018-04-30T01:45:47.548Z,66.65
2018-04-30T01:46:47.636Z,72.27
2018-04-30T01:47:47.755Z,47.12
2018-04-30T01:48:47.843Z,47.12
2018-04-30T01:49:47.941Z,48.58
2018-04-30T01:50:48.030Z,90.82
2018-04-30T01:51:48.118Z,65.43
2018-04-30T01:52:48.207Z,45.41
2018-04-30T01:53:48.302Z,62.26
2018-04-30T01:54:48.393Z,44.43
2018-04-30T01:55:48.483Z,68.85
2018-04-30T01:56:48.579Z,43.21
2018-04-30T01:57:48.686Z,43.46
2018-04-30T01:58:48.772Z,46.14
2018-04-30T01:59:48.866Z,74.22
2018-04-30T02:00:48.960Z,44.19
2018-04-30T02:01:49.059Z,45.17
2018-04-30T02:02:49.159Z,45.17
2018-04-30T02:03:49.242Z,45.41
2018-04-30T02:04:49.346Z,45.41
2018-04-30T02:05:49.434Z,44.43
2018-04-30T02:06:49.537Z,45.17
2018-04-30T02:07:49.632Z,44.19
2018-04-30T02:08:49.722Z,44.19
2018-04-30T02:09:49.833Z,73.49
2018-04-30T02:10:49.904Z,74.95
2018-04-30T02:11:50.004Z,83.01
2018-04-30T02:12:50.103Z,59.57
2018-04-30T02:13:50.203Z,44.92
2018-04-30T02:14:50.304Z,43.95
2018-04-30T02:15:50.402Z,74.71
2018-04-30T02:16:50.493Z,85.45
2018-04-30T02:17:50.582Z,49.32
2018-04-30T02:18:50.717Z,74.71
2018-04-30T02:19:50.813Z,45.17
2018-04-30T02:20:50.913Z,75.93
2018-04-30T02:21:51.000Z,79.35
2018-04-30T02:22:51.088Z,78.37
2018-04-30T02:23:51.175Z,48.58
2018-04-30T02:24:51.269Z,42.97
2018-04-30T02:25:51.364Z,52.98
2018-04-30T02:26:51.465Z,72.75
2018-04-30T02:27:51.544Z,73.24
2018-04-30T02:28:51.633Z,53.96
2018-04-30T02:29:51.728Z,84.72
2018-04-30T02:30:51.829Z,74.22
2018-04-30T02:31:51.921Z,74.71
2018-04-30T02:32:52.016Z,43.95
2018-04-30T02:33:52.109Z,44.19
2018-04-30T02:34:52.197Z,45.41
2018-04-30T02:35:52.281Z,76.42
2018-04-30T02:36:52.382Z,46.88
2018-04-30T02:37:52.466Z,55.42
2018-04-30T02:38:52.562Z,75.44
2018-04-30T02:39:52.658Z,56.64
2018-04-30T02:40:52.741Z,79.10
2018-04-30T02:41:52.836Z,47.61
2018-04-30T02:42:52.944Z,79.10
2018-04-30T02:43:53.043Z,79.10
2018-04-30T02:44:53.161Z,74.46
2018-04-30T02:45:53.269Z,75.44
2018-04-30T02:46:53.363Z,67.87
2018-04-30T02:47:53.456Z,67.14
2018-04-30T02:48:53.554Z,80.08
2018-04-30T02:49:53.642Z,82.52
2018-04-30T02:50:53.745Z,80.57
2018-04-30T02:51:53.866Z,74.46
2018-04-30T02:52:53.929Z,78.13
2018-04-30T02:53:54.030Z,85.69
2018-04-30T02:54:54.144Z,78.37
2018-04-30T02:55:54.244Z,69.09
2018-04-30T02:56:54.341Z,77.39
2018-04-30T02:57:54.433Z,63.48
2018-04-30T02:58:54.523Z,80.08
2018-04-30T02:59:54.632Z,76.42
2018-04-30T03:00:54.720Z,80.32
2018-04-30T03:01:54.813Z,76.17
2018-04-30T03:02:54.909Z,81.30
2018-04-30T03:03:55.001Z,72.75
2018-04-30T03:04:55.100Z,73.73
2018-04-30T03:05:55.199Z,75.20
2018-04-30T03:06:55.294Z,79.59
2018-04-30T03:07:55.392Z,58.84
2018-04-30T03:08:55.489Z,81.54
2018-04-30T03:09:55.592Z,56.64
2018-04-30T03:10:55.682Z,85.21
2018-04-30T03:11:55.779Z,83.25
2018-04-30T03:12:55.879Z,76.66
2018-04-30T03:13:55.983Z,76.17
2018-04-30T03:14:56.067Z,79.83
2018-04-30T03:15:56.185Z,77.15
2018-04-30T03:16:56.283Z,78.86
2018-04-30T03:17:56.391Z,76.90
2018-04-30T03:18:56.504Z,79.35
2018-04-30T03:19:56.582Z,76.17
2018-04-30T03:20:56.679Z,76.90
2018-04-30T03:21:56.762Z,81.79
2018-04-30T03:22:56.876Z,77.64
2018-04-30T03:23:56.971Z,77.39
2018-04-30T03:24:57.061Z,88.13
2018-04-30T03:25:57.144Z,75.93
2018-04-30T03:26:57.252Z,82.28
2018-04-30T03:27:57.345Z,84.47
2018-04-30T03:28:57.446Z,83.98
2018-04-30T03:29:57.562Z,80.08
2018-04-30T03:30:57.651Z,75.93
2018-04-30T03:31:57.748Z,77.64
2018-04-30T03:32:57.844Z,76.42
2018-04-30T03:33:57.951Z,83.50
2018-04-30T03:34:58.039Z,83.74
2018-04-30T03:35:58.133Z,79.35
2018-04-30T03:36:58.218Z,76.42
2018-04-30T03:37:58.377Z,74.71
2018-04-30T03:38:58.476Z,78.37
2018-04-30T03:39:58.626Z,76.42
2018-04-30T03:40:58.727Z,76.42
2018-04-30T03:41:58.855Z,89.36
2018-04-30T03:42:58.975Z,77.39
2018-04-30T03:43:59.102Z,77.15
2018-04-30T03:44:59.213Z,78.13
2018-04-30T03:45:59.319Z,76.66
2018-04-30T03:46:59.424Z,79.10
2018-04-30T03:47:59.528Z,68.85
2018-04-30T03:48:59.617Z,78.86
2018-04-30T03:49:59.764Z,77.88
2018-04-30T03:50:59.864Z,78.37
2018-04-30T03:51:59.967Z,76.66
2018-04-30T03:53:00.067Z,83.98
2018-04-30T03:54:00.190Z,76.17
2018-04-30T03:55:00.352Z,77.64
2018-04-30T03:56:00.443Z,74.71
2018-04-30T03:57:00.577Z,79.10
2018-04-30T03:58:00.704Z,73.73
2018-04-30T03:59:00.750Z,83.98
2018-04-30T04:00:00.880Z,75.68
2018-04-30T04:01:00.908Z,83.74
2018-04-30T04:02:01.008Z,78.61
2018-04-30T04:03:01.233Z,83.74
2018-04-30T04:04:01.243Z,77.64
2018-04-30T04:05:01.297Z,74.95
2018-04-30T04:06:01.437Z,76.66
2018-04-30T04:07:01.476Z,81.79
2018-04-30T04:08:01.498Z,83.98
2018-04-30T04:09:01.626Z,79.10
2018-04-30T04:10:01.851Z,77.39
2018-04-30T04:11:01.817Z,75.93
2018-04-30T04:12:01.925Z,77.15
2018-04-30T04:13:02.108Z,81.54
2018-04-30T04:14:02.226Z,78.37
2018-04-30T04:15:02.358Z,79.10
2018-04-30T04:16:02.475Z,89.11
2018-04-30T04:17:02.597Z,83.01
2018-04-30T04:18:02.689Z,77.15
2018-04-30T04:19:03.214Z,79.83
2018-04-30T04:20:03.035Z,83.98
2018-04-30T04:21:03.020Z,83.74
2018-04-30T04:22:03.110Z,76.90
2018-04-30T04:23:03.190Z,84.23
2018-04-30T04:24:03.301Z,78.37
2018-04-30T04:25:03.415Z,79.10
2018-04-30T04:26:03.531Z,77.64
2018-04-30T04:27:03.642Z,88.62
2018-04-30T04:28:03.727Z,79.83
2018-04-30T04:29:03.836Z,78.61
2018-04-30T04:30:03.956Z,79.35
2018-04-30T04:31:04.076Z,82.28
2018-04-30T04:32:04.189Z,78.13
2018-04-30T04:33:04.299Z,77.39
2018-04-30T04:34:04.403Z,80.32
2018-04-30T04:35:04.509Z,78.37
2018-04-30T04:36:04.605Z,77.39
2018-04-30T04:37:04.700Z,73.49
2018-04-30T04:38:04.830Z,85.69
2018-04-30T04:39:04.933Z,81.30
2018-04-30T04:40:05.021Z,79.59
2018-04-30T04:41:05.152Z,79.10
2018-04-30T04:42:05.259Z,75.44
2018-04-30T04:43:05.457Z,82.28
2018-04-30T04:44:05.433Z,77.64
2018-04-30T04:45:05.516Z,84.23
2018-04-30T04:46:05.625Z,84.23
2018-04-30T04:47:05.717Z,79.83
2018-04-30T04:48:05.817Z,80.08
2018-04-30T04:49:05.930Z,85.21
2018-04-30T04:50:06.021Z,84.96
2018-04-30T04:51:06.118Z,71.78
2018-04-30T04:52:06.220Z,75.44
2018-04-30T04:53:06.327Z,82.28
2018-04-30T04:54:06.415Z,80.08
2018-04-30T04:55:06.520Z,80.32
2018-04-30T04:56:06.602Z,84.72
2018-04-30T04:57:06.703Z,79.10
2018-04-30T04:58:06.790Z,77.88
2018-04-30T04:59:06.885Z,79.35
2018-04-30T05:00:07.016Z,77.88
2018-04-30T05:01:07.110Z,76.90
2018-04-30T05:02:07.231Z,78.37
2018-04-30T05:03:07.320Z,76.42
2018-04-30T05:04:07.418Z,81.54
2018-04-30T05:05:07.520Z,78.37
2018-04-30T05:06:07.623Z,78.13
2018-04-30T05:07:07.769Z,77.64
2018-04-30T05:08:07.889Z,79.10
2018-04-30T05:09:07.989Z,78.86
2018-04-30T05:10:08.072Z,82.76
2018-04-30T05:11:08.194Z,78.37
2018-04-30T05:12:08.291Z,83.74
2018-04-30T05:13:08.390Z,79.35
2018-04-30T05:14:08.561Z,82.28
2018-04-30T05:15:08.523Z,76.42
2018-04-30T05:16:08.626Z,80.32
2018-04-30T05:17:08.720Z,84.47
2018-04-30T05:18:08.831Z,83.25
2018-04-30T05:19:08.942Z,84.47
2018-04-30T05:20:09.061Z,84.47
2018-04-30T05:21:09.180Z,81.30
2018-04-30T05:22:09.282Z,78.13
2018-04-30T05:23:09.383Z,84.72
2018-04-30T05:24:09.482Z,86.18
2018-04-30T05:25:09.581Z,80.32
2018-04-30T05:26:09.681Z,81.30
2018-04-30T05:27:09.781Z,78.61
2018-04-30T05:28:09.888Z,85.21
2018-04-30T05:29:10.006Z,78.13
2018-04-30T05:30:10.104Z,87.40
2018-04-30T05:31:10.203Z,77.88
2018-04-30T05:32:10.307Z,83.50
2018-04-30T05:33:10.400Z,77.39
2018-04-30T05:34:10.496Z,77.39
2018-04-30T05:35:10.599Z,79.59
2018-04-30T05:36:10.705Z,78.37
2018-04-30T05:37:10.816Z,79.59
2018-04-30T05:38:10.912Z,78.86
2018-04-30T05:39:11.025Z,79.59
2018-04-30T05:40:11.122Z,77.64
2018-04-30T05:41:11.213Z,80.32
2018-04-30T05:42:11.312Z,83.50
2018-04-30T05:43:11.409Z,78.13
2018-04-30T05:44:11.511Z,83.50
2018-04-30T05:45:11.612Z,81.54
2018-04-30T05:46:11.711Z,77.88
2018-04-30T05:47:11.827Z,83.50
2018-04-30T05:48:11.927Z,81.05
2018-04-30T05:49:12.035Z,78.86
2018-04-30T05:50:12.132Z,83.25
2018-04-30T05:51:12.228Z,83.01
2018-04-30T05:52:12.327Z,83.01
2018-04-30T05:53:12.453Z,84.23
2018-04-30T05:54:12.555Z,77.15
2018-04-30T05:55:12.729Z,85.69
2018-04-30T05:56:12.781Z,78.37
2018-04-30T05:57:12.949Z,77.15
2018-04-30T05:58:12.927Z,77.39
2018-04-30T05:59:13.026Z,83.25
2018-04-30T06:00:13.122Z,83.74
2018-04-30T06:01:13.222Z,76.42
2018-04-30T06:02:13.320Z,76.42
2018-04-30T06:03:13.476Z,85.69
2018-04-30T06:04:13.568Z,79.83
2018-04-30T06:05:13.666Z,85.21
2018-04-30T06:06:13.768Z,79.83
2018-04-30T06:07:13.892Z,78.86
2018-04-30T06:08:13.999Z,79.10
2018-04-30T06:09:14.099Z,84.96
2018-04-30T06:10:14.199Z,92.04
2018-04-30T06:11:14.288Z,79.10
2018-04-30T06:12:14.426Z,78.61
2018-04-30T06:13:14.482Z,77.39
2018-04-30T06:14:14.585Z,82.03
2018-04-30T06:15:14.763Z,77.39
2018-04-30T06:16:14.784Z,79.59
2018-04-30T06:17:14.879Z,82.76
2018-04-30T06:18:14.978Z,82.52
2018-04-30T06:19:15.074Z,74.46
2018-04-30T06:20:15.176Z,83.74
2018-04-30T06:21:15.279Z,78.61
2018-04-30T06:22:15.372Z,76.66
2018-04-30T06:23:15.469Z,78.13
2018-04-30T06:24:15.576Z,81.05
2018-04-30T06:25:15.674Z,78.61
2018-04-30T06:26:15.771Z,77.88
2018-04-30T06:27:15.870Z,87.89
2018-04-30T06:28:15.968Z,79.10
2018-04-30T06:29:16.066Z,78.86
2018-04-30T06:30:16.164Z,80.32
2018-04-30T06:31:16.264Z,77.39
2018-04-30T06:32:16.364Z,82.03
2018-04-30T06:33:16.463Z,83.25
2018-04-30T06:34:16.560Z,78.37
2018-04-30T06:35:16.657Z,78.13
2018-04-30T06:36:16.755Z,86.18
2018-04-30T06:37:16.854Z,77.64
2018-04-30T06:38:16.957Z,88.13
2018-04-30T06:39:17.056Z,87.65
2018-04-30T06:40:17.155Z,78.86
2018-04-30T06:41:17.256Z,81.30
2018-04-30T06:42:17.355Z,78.86
2018-04-30T06:43:17.453Z,79.59
2018-04-30T06:44:17.554Z,78.37
2018-04-30T06:45:17.642Z,82.03
2018-04-30T06:46:17.742Z,77.64
2018-04-30T06:47:17.848Z,79.10
2018-04-30T06:48:17.943Z,79.59
2018-04-30T06:49:18.046Z,80.08
2018-04-30T06:50:18.149Z,85.21
2018-04-30T06:51:18.248Z,79.59
2018-04-30T06:52:18.346Z,83.01
2018-04-30T06:53:18.443Z,80.81
2018-04-30T06:54:18.540Z,78.86
2018-04-30T06:55:18.640Z,78.37
2018-04-30T06:56:18.743Z,81.79
2018-04-30T06:57:18.844Z,80.32
2018-04-30T06:58:18.945Z,76.17
2018-04-30T06:59:19.045Z,82.28
2018-04-30T07:00:19.162Z,77.39
2018-04-30T07:01:19.246Z,75.20
2018-04-30T07:02:19.343Z,78.37
2018-04-30T07:03:19.442Z,77.88
2018-04-30T07:04:19.550Z,76.66
2018-04-30T07:05:19.645Z,83.50
2018-04-30T07:06:19.744Z,82.28
2018-04-30T07:07:19.844Z,78.37
2018-04-30T07:08:19.943Z,81.79
2018-04-30T07:09:20.150Z,80.08
2018-04-30T07:10:20.145Z,81.54
2018-04-30T07:11:20.246Z,78.13
2018-04-30T07:12:20.351Z,79.35
2018-04-30T07:13:20.451Z,81.05
2018-04-30T07:14:20.553Z,79.83
2018-04-30T07:15:20.654Z,82.76
2018-04-30T07:16:20.757Z,85.45
2018-04-30T07:17:20.860Z,78.86
2018-04-30T07:18:20.958Z,77.88
2018-04-30T07:19:21.065Z,77.64
2018-04-30T07:20:21.168Z,82.76
2018-04-30T07:21:21.269Z,75.44
2018-04-30T07:22:21.370Z,81.30
2018-04-30T07:23:21.469Z,83.01
2018-04-30T07:24:21.568Z,83.50
2018-04-30T07:25:21.674Z,77.64
2018-04-30T07:26:21.789Z,83.01
2018-04-30T07:27:21.887Z,81.54
2018-04-30T07:28:21.988Z,81.05
2018-04-30T07:29:22.090Z,78.86
2018-04-30T07:30:22.190Z,79.35
2018-04-30T07:31:22.294Z,78.37
2018-04-30T07:32:22.391Z,79.83
2018-04-30T07:33:22.491Z,85.45
2018-04-30T07:34:22.591Z,79.59
2018-04-30T07:35:22.698Z,79.35
2018-04-30T07:36:22.799Z,79.83
2018-04-30T07:37:22.905Z,81.05
2018-04-30T07:38:23.005Z,82.52
2018-04-30T07:39:23.114Z,84.72
2018-04-30T07:40:23.201Z,83.50
2018-04-30T07:41:23.303Z,81.54
2018-04-30T07:42:23.402Z,79.10
2018-04-30T07:43:23.503Z,78.86
2018-04-30T07:44:23.603Z,78.61
2018-04-30T07:45:23.702Z,79.10
2018-04-30T07:46:23.803Z,79.35
2018-04-30T07:47:23.910Z,81.79
2018-04-30T07:48:24.010Z,76.42
2018-04-30T07:49:24.109Z,80.32
2018-04-30T07:50:24.208Z,86.67
2018-04-30T07:51:24.308Z,81.30
2018-04-30T07:52:24.409Z,77.39
2018-04-30T07:53:24.513Z,82.52
2018-04-30T07:54:24.625Z,83.98
2018-04-30T07:55:24.722Z,77.39
2018-04-30T07:56:24.826Z,76.66
2018-04-30T07:57:24.928Z,83.25
2018-04-30T07:58:25.018Z,78.86
2018-04-30T07:59:25.137Z,79.35
2018-04-30T08:00:25.228Z,85.69
2018-04-30T08:01:25.484Z,78.37
2018-04-30T08:02:25.469Z,79.10
2018-04-30T08:03:25.575Z,83.50
2018-04-30T08:04:25.677Z,77.39
2018-04-30T08:05:25.775Z,78.13
2018-04-30T08:06:25.871Z,81.30
2018-04-30T08:07:25.970Z,84.47
2018-04-30T08:08:26.067Z,84.72
2018-04-30T08:09:26.165Z,80.08
2018-04-30T08:10:26.264Z,81.30
2018-04-30T08:11:26.367Z,81.54
2018-04-30T08:12:26.462Z,78.86
2018-04-30T08:13:26.559Z,79.59
2018-04-30T08:14:26.741Z,83.50
2018-04-30T08:15:26.713Z,84.23
2018-04-30T08:16:26.808Z,80.57
2018-04-30T08:17:26.908Z,78.37
2018-04-30T08:18:27.026Z,77.64
2018-04-30T08:19:27.129Z,87.65
2018-04-30T08:20:27.245Z,84.23
2018-04-30T08:21:27.382Z,79.10
2018-04-30T08:22:27.458Z,79.83
2018-04-30T08:23:27.555Z,77.39
2018-04-30T08:24:27.649Z,87.65
2018-04-30T08:25:27.753Z,77.39
2018-04-30T08:26:27.849Z,77.15
2018-04-30T08:27:27.947Z,76.66
2018-04-30T08:28:28.044Z,80.81
2018-04-30T08:29:28.143Z,85.94
2018-04-30T08:30:28.244Z,82.03
2018-04-30T08:31:28.342Z,80.08
2018-04-30T08:32:28.435Z,81.79
2018-04-30T08:33:28.560Z,76.66
2018-04-30T08:34:28.675Z,77.88
2018-04-30T08:35:28.867Z,78.86
2018-04-30T08:36:28.881Z,86.18
2018-04-30T08:37:28.996Z,83.98
2018-04-30T08:38:29.050Z,83.50
2018-04-30T08:39:29.169Z,83.25
2018-04-30T08:40:29.357Z,79.83
2018-04-30T08:41:29.402Z,78.86
2018-04-30T08:42:29.487Z,77.64
2018-04-30T08:43:29.638Z,76.90
2018-04-30T08:44:29.827Z,77.15
2018-04-30T08:45:29.799Z,83.50
2018-04-30T08:46:29.901Z,80.57
2018-04-30T08:47:29.983Z,85.94
2018-04-30T08:48:30.110Z,80.32
2018-04-30T08:49:30.215Z,84.47
2018-04-30T08:50:30.353Z,81.54
2018-04-30T08:51:30.453Z,83.25
2018-04-30T08:52:30.694Z,76.90
2018-04-30T08:53:30.645Z,83.50
2018-04-30T08:54:30.755Z,76.90
2018-04-30T08:55:30.855Z,77.15
2018-04-30T08:56:30.979Z,81.79
2018-04-30T08:57:31.105Z,78.37
2018-04-30T08:58:31.224Z,77.64
2018-04-30T08:59:31.310Z,78.61
2018-04-30T09:00:31.481Z,87.16
2018-04-30T09:01:31.529Z,77.64
2018-04-30T09:02:31.709Z,85.69
2018-04-30T09:03:31.726Z,78.86
2018-04-30T09:04:31.824Z,83.25
2018-04-30T09:05:31.938Z,83.74
2018-04-30T09:06:32.025Z,87.16
2018-04-30T09:07:32.116Z,82.52
2018-04-30T09:08:32.312Z,81.54
2018-04-30T09:09:32.352Z,82.03
2018-04-30T09:10:32.454Z,79.83
2018-04-30T09:11:32.544Z,83.25
2018-04-30T09:12:32.648Z,83.50
2018-04-30T09:13:32.743Z,77.64
2018-04-30T09:14:32.849Z,82.76
2018-04-30T09:15:32.950Z,77.15
2018-04-30T09:16:33.031Z,76.66
2018-04-30T09:17:33.148Z,79.10
2018-04-30T09:18:33.268Z,75.93
2018-04-30T09:19:35.239Z,85.69
2018-04-30T09:20:33.477Z,83.74
2018-04-30T09:21:33.649Z,78.13
2018-04-30T09:22:33.634Z,76.90
2018-04-30T09:23:33.725Z,84.47
2018-04-30T09:24:33.828Z,79.35
2018-04-30T09:25:33.991Z,78.61
2018-04-30T09:26:33.966Z,83.74
2018-04-30T09:27:34.075Z,79.59
2018-04-30T09:28:34.179Z,78.37
2018-04-30T09:29:34.277Z,77.88
2018-04-30T09:30:34.374Z,77.39
2018-04-30T09:31:34.608Z,82.52
2018-04-30T09:32:34.575Z,77.15
2018-04-30T09:33:34.672Z,81.05
2018-04-30T09:34:34.770Z,91.80
2018-04-30T09:35:34.863Z,79.59
2018-04-30T09:36:34.964Z,79.10
2018-04-30T09:37:35.337Z,86.43
2018-04-30T09:38:35.243Z,88.62
2018-04-30T09:39:35.328Z,86.43
2018-04-30T09:40:35.435Z,80.81
2018-04-30T09:41:35.546Z,81.05
2018-04-30T09:42:35.647Z,77.64
2018-04-30T09:43:35.750Z,79.59
2018-04-30T09:44:35.851Z,78.37
2018-04-30T09:45:35.955Z,81.79
2018-04-30T09:46:36.052Z,77.15
2018-04-30T09:47:36.144Z,81.05
2018-04-30T09:48:36.250Z,86.18
2018-04-30T09:49:36.354Z,81.05
2018-04-30T09:50:36.446Z,86.91
2018-04-30T09:51:36.559Z,76.42
2018-04-30T09:52:37.467Z,84.23
2018-04-30T09:53:36.810Z,78.37
2018-04-30T09:54:36.910Z,78.37
2018-04-30T09:55:37.015Z,78.61
2018-04-30T09:56:37.121Z,79.59
2018-04-30T09:57:37.324Z,79.10
2018-04-30T09:58:37.330Z,81.54
2018-04-30T09:59:37.420Z,79.83
2018-04-30T10:00:37.526Z,77.88
2018-04-30T10:01:37.618Z,84.23
2018-04-30T10:02:37.716Z,77.39
2018-04-30T10:03:37.819Z,83.98
2018-04-30T10:04:38.000Z,83.01
2018-04-30T10:05:38.014Z,76.66
2018-04-30T10:06:38.127Z,79.10
2018-04-30T10:07:38.258Z,83.74
2018-04-30T10:08:38.386Z,79.35
2018-04-30T10:09:38.518Z,84.72
2018-04-30T10:10:38.631Z,82.76
2018-04-30T10:11:38.715Z,76.90
2018-04-30T10:12:38.817Z,76.66
2018-04-30T10:13:38.914Z,79.83
2018-04-30T10:14:38.998Z,77.64
2018-04-30T10:15:39.110Z,78.37
2018-04-30T10:16:39.203Z,79.35
2018-04-30T10:17:39.340Z,79.10
2018-04-30T10:18:39.419Z,80.08
2018-04-30T10:19:39.969Z,77.64
2018-04-30T10:20:39.650Z,77.88
2018-04-30T10:21:39.753Z,80.32
2018-04-30T10:22:39.906Z,79.10
2018-04-30T10:23:40.077Z,77.64
2018-04-30T10:24:40.087Z,82.28
2018-04-30T10:25:40.196Z,82.28
2018-04-30T10:26:40.278Z,79.83
2018-04-30T10:27:40.432Z,78.37
2018-04-30T10:28:40.586Z,79.10
2018-04-30T10:29:40.629Z,78.13
2018-04-30T10:30:40.767Z,82.28
2018-04-30T10:31:40.979Z,85.45
2018-04-30T10:32:40.904Z,76.66
2018-04-30T10:33:41.010Z,80.81
2018-04-30T10:34:41.137Z,81.54
2018-04-30T10:35:41.243Z,76.66
2018-04-30T10:36:41.352Z,83.25
2018-04-30T10:37:41.565Z,87.89
2018-04-30T10:38:41.571Z,76.90
2018-04-30T10:39:41.661Z,78.13
2018-04-30T10:40:41.750Z,81.54
2018-04-30T10:41:41.848Z,79.35
2018-04-30T10:42:41.955Z,82.76
2018-04-30T10:43:42.034Z,81.05
2018-04-30T10:44:42.136Z,78.13
2018-04-30T10:45:42.472Z,77.15
2018-04-30T10:46:42.294Z,75.20
2018-04-30T10:47:42.406Z,81.05
2018-04-30T10:48:42.506Z,79.35
2018-04-30T10:49:42.765Z,83.25
2018-04-30T10:50:42.739Z,76.42
2018-04-30T10:51:42.930Z,77.15
2018-04-30T10:52:43.002Z,77.64
2018-04-30T10:53:43.126Z,79.35
2018-04-30T10:54:43.238Z,77.64
2018-04-30T10:55:43.345Z,76.42
2018-04-30T10:56:43.445Z,77.15
2018-04-30T10:57:43.545Z,86.18
2018-04-30T10:58:43.641Z,83.50
2018-04-30T10:59:43.725Z,77.88
2018-04-30T11:00:43.823Z,77.64
2018-04-30T11:01:43.918Z,76.42
2018-04-30T11:02:44.048Z,81.30
2018-04-30T11:03:44.117Z,79.10
2018-04-30T11:04:44.218Z,78.13
2018-04-30T11:05:44.308Z,80.32
2018-04-30T11:06:44.422Z,76.66
2018-04-30T11:07:44.615Z,81.54
2018-04-30T11:08:44.594Z,81.05
2018-04-30T11:09:44.691Z,79.10
2018-04-30T11:10:44.852Z,80.57
2018-04-30T11:11:44.908Z,81.54
2018-04-30T11:12:45.012Z,77.64
2018-04-30T11:13:45.127Z,89.84
2018-04-30T11:14:45.226Z,80.57
2018-04-30T11:15:45.327Z,83.01
2018-04-30T11:16:45.427Z,79.35
2018-04-30T11:17:45.529Z,76.17
2018-04-30T11:18:45.628Z,81.79
2018-04-30T11:19:45.724Z,75.20
2018-04-30T11:20:45.843Z,83.01
2018-04-30T11:21:45.942Z,78.13
2018-04-30T11:22:46.055Z,79.10
2018-04-30T11:23:46.143Z,76.42
2018-04-30T11:24:46.246Z,77.88
2018-04-30T11:25:46.356Z,79.35
2018-04-30T11:26:46.449Z,75.93
2018-04-30T11:27:46.552Z,77.88
2018-04-30T11:28:46.652Z,78.13
2018-04-30T11:29:46.753Z,78.61
2018-04-30T11:30:46.849Z,81.05
2018-04-30T11:31:46.949Z,81.54
2018-04-30T11:32:47.061Z,75.44
2018-04-30T11:33:47.157Z,84.96
2018-04-30T11:34:47.266Z,84.23
2018-04-30T11:35:47.364Z,76.90
2018-04-30T11:36:47.466Z,83.98
2018-04-30T11:37:47.565Z,78.13
2018-04-30T11:38:47.663Z,79.10
2018-04-30T11:39:47.761Z,78.86
2018-04-30T11:40:47.865Z,78.86
2018-04-30T11:41:47.970Z,82.76
2018-04-30T11:42:48.079Z,84.72
2018-04-30T11:43:48.166Z,81.05
2018-04-30T11:44:48.269Z,79.10
2018-04-30T11:45:48.372Z,78.61
2018-04-30T11:46:48.471Z,77.39
2018-04-30T11:47:48.571Z,75.20
2018-04-30T11:48:48.673Z,78.13
2018-04-30T11:49:48.776Z,83.50
2018-04-30T11:50:48.874Z,80.57
2018-04-30T11:51:48.976Z,86.91
2018-04-30T11:52:49.075Z,80.32
2018-04-30T11:53:49.174Z,82.03
2018-04-30T11:54:49.274Z,80.32
2018-04-30T11:55:49.394Z,79.10
2018-04-30T11:56:49.502Z,76.66
2018-04-30T11:57:49.603Z,85.45
2018-04-30T11:58:49.701Z,86.18
2018-04-30T11:59:49.804Z,78.13
2018-04-30T12:00:49.909Z,77.15
2018-04-30T12:01:50.008Z,78.37
2018-04-30T12:02:50.107Z,99.12
2018-04-30T12:03:50.209Z,76.17
2018-04-30T12:04:50.316Z,77.39
2018-04-30T12:05:50.413Z,75.93
2018-04-30T12:06:50.514Z,86.67
2018-04-30T12:07:50.621Z,78.13
2018-04-30T12:08:50.716Z,77.39
2018-04-30T12:09:50.817Z,84.72
2018-04-30T12:10:50.919Z,79.83
2018-04-30T12:11:51.019Z,75.93
2018-04-30T12:12:51.120Z,76.17
2018-04-30T12:13:51.222Z,76.17
2018-04-30T12:14:51.322Z,85.94
2018-04-30T12:15:51.426Z,81.54
2018-04-30T12:16:51.529Z,84.72
2018-04-30T12:17:51.631Z,76.66
2018-04-30T12:18:51.734Z,77.15
2018-04-30T12:19:51.833Z,76.17
2018-04-30T12:20:51.933Z,82.52
2018-04-30T12:21:52.105Z,76.66
2018-04-30T12:22:52.142Z,78.13
2018-04-30T12:23:52.243Z,77.39
2018-04-30T12:24:52.337Z,77.39
2018-04-30T12:25:52.441Z,75.93
2018-04-30T12:26:52.541Z,78.86
2018-04-30T12:27:52.647Z,82.03
2018-04-30T12:28:52.745Z,79.35
2018-04-30T12:29:52.903Z,76.90
2018-04-30T12:30:52.955Z,83.74
2018-04-30T12:31:53.062Z,76.90
2018-04-30T12:32:53.160Z,76.42
2018-04-30T12:33:53.261Z,79.59
2018-04-30T12:34:53.364Z,76.66
2018-04-30T12:35:53.466Z,76.42
2018-04-30T12:36:53.567Z,81.05
2018-04-30T12:37:53.681Z,79.10
2018-04-30T12:38:53.773Z,77.64
2018-04-30T12:39:53.874Z,78.13
2018-04-30T12:40:53.977Z,78.61
2018-04-30T12:41:54.082Z,77.39
2018-04-30T12:42:54.184Z,84.23
2018-04-30T12:43:54.286Z,82.52
2018-04-30T12:44:54.388Z,77.39
2018-04-30T12:45:54.489Z,84.72
2018-04-30T12:46:54.594Z,76.66
2018-04-30T12:47:54.694Z,85.94
2018-04-30T12:48:54.795Z,74.71
2018-04-30T12:49:54.899Z,78.13
2018-04-30T12:50:55.001Z,76.42
2018-04-30T12:51:55.103Z,81.79
2018-04-30T12:52:55.202Z,82.03
2018-04-30T12:53:55.315Z,75.93